createdAt,value
2019-05-14T00:03:45.143Z,2.72
2019-05-14T00:08:48.763Z,2.20
2019-05-14T00:13:52.911Z,2.60
2019-05-14T00:18:56.301Z,2.70
2019-05-14T00:24:01.800Z,2.70
2019-05-14T00:29:05.032Z,2.65
2019-05-14T00:34:11.011Z,3.02
2019-05-14T00:39:13.832Z,3.33
2019-05-14T00:44:17.458Z,3.10
2019-05-14T00:49:21.283Z,3.37
2019-05-14T00:54:24.711Z,3.00
2019-05-14T00:59:28.098Z,2.87
2019-05-14T01:04:31.823Z,2.80
2019-05-14T01:09:35.152Z,3.30
2019-05-14T01:14:38.541Z,2.98
2019-05-14T01:19:42.611Z,2.90
2019-05-14T01:24:46.114Z,2.72
2019-05-14T01:29:51.450Z,3.55
2019-05-14T01:34:54.607Z,3.35
2019-05-14T01:39:57.998Z,3.10
2019-05-14T01:45:02.576Z,3.22
2019-05-14T01:50:07.124Z,3.10
2019-05-14T01:55:11.471Z,2.98
2019-05-14T02:00:15.403Z,3.15
2019-05-14T02:05:18.819Z,2.98
2019-05-14T02:10:22.745Z,2.90
2019-05-14T02:15:38.889Z,3.17
2019-05-14T02:20:32.118Z,3.27
2019-05-14T02:25:35.622Z,4.08
2019-05-14T02:30:52.478Z,5.00
2019-05-14T02:35:44.425Z,4.08
2019-05-14T02:40:49.452Z,4.47
2019-05-14T02:46:06.082Z,4.10
2019-05-14T02:50:59.907Z,4.20
2019-05-14T02:56:03.709Z,4.05
2019-05-14T03:01:09.430Z,3.20
2019-05-14T03:06:12.535Z,3.58
2019-05-14T03:11:16.160Z,3.40
2019-05-14T03:16:29.318Z,3.70
2019-05-14T03:21:24.673Z,3.30
2019-05-14T03:26:29.341Z,3.87
2019-05-14T03:31:34.117Z,3.77
2019-05-14T03:36:42.689Z,3.50
2019-05-14T03:41:42.753Z,3.20
2019-05-14T03:46:54.703Z,3.75
2019-05-14T03:51:51.414Z,3.33
2019-05-14T03:56:55.003Z,3.22
2019-05-14T04:01:59.607Z,3.50
2019-05-14T04:07:04.227Z,3.45
2019-05-14T04:12:10.119Z,3.30
2019-05-14T04:17:25.522Z,3.90
2019-05-14T04:22:24.086Z,3.65
2019-05-14T04:27:30.253Z,3.45
2019-05-14T04:32:33.814Z,3.02
2019-05-14T04:37:39.919Z,3.72
2019-05-14T04:42:42.583Z,4.00
2019-05-14T04:47:49.525Z,3.58
2019-05-14T04:52:51.107Z,3.45
2019-05-14T04:57:54.730Z,3.85
2019-05-14T05:03:00.008Z,3.37
2019-05-14T05:08:03.226Z,3.67
2019-05-14T05:13:09.125Z,3.47
2019-05-14T05:18:11.740Z,5.22
2019-05-14T05:23:15.370Z,4.60
2019-05-14T05:28:19.199Z,4.22
2019-05-14T05:33:22.547Z,5.00
2019-05-14T05:38:25.958Z,4.50
2019-05-14T05:43:29.381Z,4.70
2019-05-14T05:48:33.037Z,4.33
2019-05-14T05:53:39.038Z,4.10
2019-05-14T05:58:41.556Z,4.40
2019-05-14T06:03:44.972Z,4.10
2019-05-14T06:08:49.161Z,2.95
2019-05-14T06:13:52.847Z,2.65
2019-05-14T06:18:58.622Z,2.90
2019-05-14T06:24:02.950Z,2.72
2019-05-14T06:29:08.403Z,3.20
2019-05-14T06:34:11.583Z,2.85
2019-05-14T06:39:14.975Z,2.60
2019-05-14T06:44:18.818Z,2.77
2019-05-14T06:49:22.282Z,2.62
2019-05-14T06:54:25.700Z,2.70
2019-05-14T06:59:29.088Z,2.50
2019-05-14T07:04:32.473Z,2.77
2019-05-14T07:09:38.353Z,2.80
2019-05-14T07:14:41.653Z,3.30
2019-05-14T07:19:45.064Z,2.77
2019-05-14T07:24:49.710Z,2.90
2019-05-14T07:29:53.353Z,2.90
2019-05-14T07:34:56.772Z,2.62
2019-05-14T07:40:00.189Z,2.90
2019-05-14T07:45:04.702Z,3.12
2019-05-14T07:50:09.441Z,2.67
2019-05-14T07:55:13.069Z,3.27
2019-05-14T08:00:19.160Z,2.85
2019-05-14T08:05:22.334Z,3.10
2019-05-14T08:10:25.742Z,2.95
2019-05-14T08:15:29.133Z,2.65
2019-05-14T08:20:32.522Z,2.60
2019-05-14T08:25:35.914Z,2.50
2019-05-14T08:30:39.332Z,2.70
2019-05-14T08:35:42.761Z,2.40
2019-05-14T08:40:48.663Z,2.62
2019-05-14T08:45:51.324Z,2.45
2019-05-14T08:50:54.714Z,2.92
2019-05-14T08:55:58.931Z,2.95
2019-05-14T09:01:02.441Z,3.10
2019-05-14T09:06:05.833Z,2.75
2019-05-14T09:11:10.123Z,2.55
2019-05-14T09:16:13.842Z,2.45
2019-05-14T09:21:20.214Z,2.80
2019-05-14T09:26:22.349Z,2.70
2019-05-14T09:31:25.746Z,3.05
2019-05-14T09:36:29.273Z,2.50
2019-05-14T09:41:32.733Z,2.50
2019-05-14T09:46:38.285Z,2.52
2019-05-14T09:51:41.244Z,2.37
2019-05-14T09:56:44.650Z,2.47
2019-05-14T10:01:50.787Z,2.40
2019-05-14T10:06:53.201Z,2.40
2019-05-14T10:11:57.988Z,2.42
2019-05-14T10:17:01.507Z,2.30
2019-05-14T10:22:04.932Z,2.15
2019-05-14T10:27:09.101Z,2.70
2019-05-14T10:32:12.609Z,2.98
2019-05-14T10:37:16.050Z,2.37
2019-05-14T10:42:20.296Z,1.72
2019-05-14T10:47:23.806Z,1.85
2019-05-14T10:52:28.880Z,1.75
2019-05-14T10:57:32.543Z,1.92
2019-05-14T11:02:38.533Z,1.62
2019-05-14T11:07:41.913Z,1.92
2019-05-14T11:12:45.316Z,1.92
2019-05-14T11:17:48.907Z,1.65
2019-05-14T11:22:52.508Z,1.80
2019-05-14T11:27:58.455Z,1.90
2019-05-14T11:33:01.378Z,1.87
2019-05-14T11:38:04.800Z,1.70
2019-05-14T11:43:08.465Z,1.65
2019-05-14T11:48:11.865Z,1.40
2019-05-14T11:53:15.270Z,1.50
2019-05-14T11:58:20.984Z,1.40
2019-05-14T12:03:24.087Z,1.80
2019-05-14T12:08:28.781Z,1.60
2019-05-14T12:13:33.000Z,1.80
2019-05-14T12:18:41.360Z,1.65
2019-05-14T12:23:41.526Z,1.67
2019-05-14T12:28:44.955Z,1.52
2019-05-14T12:33:48.954Z,1.60
2019-05-14T12:38:52.442Z,1.62
2019-05-14T12:43:55.866Z,1.40
2019-05-14T12:48:59.277Z,1.77
2019-05-14T12:54:02.671Z,1.70
2019-05-14T12:59:06.070Z,1.60
2019-05-14T13:04:09.454Z,1.60
2019-05-14T13:09:12.844Z,1.25
2019-05-14T13:14:16.239Z,1.67
2019-05-14T13:19:19.877Z,1.62
2019-05-14T13:24:23.272Z,1.82
2019-05-14T13:29:28.932Z,1.65
2019-05-14T13:34:31.781Z,1.85
2019-05-14T13:39:35.214Z,1.50
2019-05-14T13:44:38.663Z,1.50
2019-05-14T13:49:42.063Z,1.40
2019-05-14T13:54:45.488Z,1.55
2019-05-14T13:59:49.446Z,1.40
2019-05-14T14:04:52.873Z,1.52
2019-05-14T14:09:58.978Z,1.70
2019-05-14T14:15:01.459Z,1.30
2019-05-14T14:20:08.303Z,1.50
2019-05-14T14:25:12.313Z,1.40
2019-05-14T14:30:19.532Z,1.67
2019-05-14T14:35:24.544Z,1.52
2019-05-14T14:40:30.214Z,1.50
2019-05-14T14:45:33.401Z,1.40
2019-05-14T14:50:38.959Z,1.40
2019-05-14T14:55:42.265Z,1.20
2019-05-14T15:00:45.661Z,1.30
2019-05-14T15:05:49.978Z,1.60
2019-05-14T15:10:53.447Z,1.32
2019-05-14T15:15:56.873Z,1.40
2019-05-14T15:21:00.268Z,1.25
2019-05-14T15:26:03.813Z,1.37
2019-05-14T15:31:08.696Z,1.10
2019-05-14T15:36:12.419Z,1.27
2019-05-14T15:41:15.869Z,1.20
2019-05-14T15:46:19.292Z,1.25
2019-05-14T15:51:22.683Z,1.10
2019-05-14T15:56:26.106Z,0.95
2019-05-14T16:01:29.525Z,1.25
2019-05-14T16:06:33.157Z,1.05
2019-05-14T16:11:36.549Z,1.30
2019-05-14T16:16:39.990Z,1.42
2019-05-14T16:21:43.409Z,1.20
2019-05-14T16:26:46.835Z,1.40
2019-05-14T16:31:50.230Z,1.32
2019-05-14T16:36:53.628Z,1.10
2019-05-14T16:41:58.287Z,1.25
2019-05-14T16:47:01.694Z,1.30
2019-05-14T16:52:05.130Z,1.30
2019-05-14T16:57:11.061Z,1.10
2019-05-14T17:02:13.952Z,1.50
2019-05-14T17:07:18.295Z,1.10
2019-05-14T17:12:22.989Z,1.10
2019-05-14T17:17:26.509Z,1.10
2019-05-14T17:22:33.562Z,1.30
2019-05-14T17:27:35.013Z,1.30
2019-05-14T17:32:39.366Z,1.10
2019-05-14T17:37:42.846Z,1.12
2019-05-14T17:42:48.764Z,1.50
2019-05-14T17:47:51.866Z,1.40
2019-05-14T17:52:56.972Z,1.47
2019-05-14T17:58:00.759Z,1.10
2019-05-14T18:03:04.699Z,1.20
2019-05-14T18:08:09.291Z,2.05
2019-05-14T18:13:12.847Z,1.50
2019-05-14T18:18:18.435Z,1.70
2019-05-14T18:23:21.422Z,1.30
2019-05-14T18:28:24.882Z,1.60
2019-05-14T18:33:31.172Z,1.27
2019-05-14T18:38:33.757Z,1.40
2019-05-14T18:43:37.240Z,1.50
2019-05-14T18:48:40.873Z,1.77
2019-05-14T18:53:44.265Z,1.70
2019-05-14T18:58:49.006Z,1.72
2019-05-14T19:03:52.600Z,2.40
2019-05-14T19:08:56.016Z,2.33
2019-05-14T19:13:59.647Z,2.12
2019-05-14T19:19:03.269Z,2.70
2019-05-14T19:24:08.938Z,2.37
2019-05-14T19:29:11.823Z,2.60
2019-05-14T19:34:15.243Z,2.45
2019-05-14T19:39:18.876Z,2.60
2019-05-14T19:44:22.580Z,1.90
2019-05-14T19:49:25.969Z,2.05
2019-05-14T19:54:29.410Z,2.62
2019-05-14T19:59:32.743Z,2.17
2019-05-14T20:04:36.134Z,2.20
2019-05-14T20:09:39.829Z,2.75
2019-05-14T20:14:43.212Z,2.20
2019-05-14T20:19:48.839Z,2.37
2019-05-14T20:24:51.947Z,2.50
2019-05-14T20:29:55.338Z,2.50
2019-05-14T20:34:58.717Z,2.30
2019-05-14T20:40:02.129Z,2.40
2019-05-14T20:45:06.895Z,2.77
2019-05-14T20:50:10.746Z,3.00
2019-05-14T20:55:14.201Z,2.47
2019-05-14T21:00:18.465Z,2.80
2019-05-14T21:05:21.879Z,2.90
2019-05-14T21:10:25.269Z,3.30
2019-05-14T21:15:28.988Z,2.70
2019-05-14T21:20:32.560Z,3.17
2019-05-14T21:25:35.947Z,3.37
2019-05-14T21:30:39.368Z,5.95
2019-05-14T21:35:42.788Z,3.00
2019-05-14T21:40:46.176Z,2.50
2019-05-14T21:45:49.590Z,2.85
2019-05-14T21:50:53.269Z,3.10
2019-05-14T21:55:58.634Z,2.50
2019-05-14T22:01:03.709Z,2.85
2019-05-14T22:06:08.892Z,2.90
2019-05-14T22:11:12.540Z,2.50
2019-05-14T22:16:16.163Z,2.58
2019-05-14T22:21:19.581Z,3.17
2019-05-14T22:26:22.967Z,2.90
2019-05-14T22:31:28.740Z,2.70
2019-05-14T22:36:31.520Z,3.10
2019-05-14T22:41:35.190Z,2.75
2019-05-14T22:46:40.347Z,2.70
2019-05-14T22:51:43.895Z,3.00
2019-05-14T22:56:48.100Z,3.00
2019-05-14T23:01:51.572Z,2.75
2019-05-14T23:06:54.976Z,2.85
2019-05-14T23:11:59.000Z,2.83
2019-05-14T23:17:02.375Z,2.85
2019-05-14T23:22:05.997Z,2.87
2019-05-14T23:27:09.379Z,2.80
2019-05-14T23:32:12.835Z,2.80
2019-05-14T23:37:18.153Z,3.00
2019-05-14T23:42:21.626Z,2.87
2019-05-14T23:47:25.244Z,2.83
2019-05-14T23:52:29.444Z,2.80
2019-05-14T23:57:32.891Z,2.58
